createdAt,value
2022-10-31T00:01:29.840Z,26.87
2022-10-31T00:03:56.912Z,31.67
2022-10-31T00:06:24.282Z,27.43
2022-10-31T00:08:57.253Z,29.30
2022-10-31T00:11:24.798Z,27.90
2022-10-31T00:13:52.179Z,30.80
2022-10-31T00:16:24.665Z,31.33
2022-10-31T00:18:53.569Z,30.53
2022-10-31T00:21:21.493Z,31.03
2022-10-31T00:23:49.126Z,27.77
2022-10-31T00:26:17.728Z,30.30
2022-10-31T00:28:45.247Z,30.13
2022-10-31T00:31:13.549Z,34.57
2022-10-31T00:33:41.949Z,31.43
2022-10-31T00:36:14.253Z,34.73
2022-10-31T00:38:42.790Z,30.37
2022-10-31T00:41:10.972Z,30.53
2022-10-31T00:43:43.034Z,32.83
2022-10-31T00:46:11.076Z,37.80
2022-10-31T00:48:38.283Z,34.93
2022-10-31T00:51:06.136Z,33.03
2022-10-31T00:53:33.405Z,32.10
2022-10-31T00:56:00.423Z,31.63
2022-10-31T00:58:27.675Z,33.50
2022-10-31T01:00:57.843Z,33.63
2022-10-31T01:03:31.150Z,34.60
2022-10-31T01:06:05.533Z,34.13
2022-10-31T01:08:35.034Z,34.27
2022-10-31T01:11:15.120Z,32.90
2022-10-31T01:13:42.824Z,34.07
2022-10-31T01:16:14.152Z,33.53
2022-10-31T01:18:41.613Z,32.13
2022-10-31T01:21:11.917Z,31.50
2022-10-31T01:23:39.302Z,33.37
2022-10-31T01:26:13.350Z,34.37
2022-10-31T01:28:49.658Z,34.10
2022-10-31T01:31:18.208Z,31.57
2022-10-31T01:33:45.334Z,36.93
2022-10-31T01:36:13.139Z,34.47
2022-10-31T01:38:40.475Z,32.97
2022-10-31T01:41:07.501Z,31.23
2022-10-31T01:43:57.250Z,34.13
2022-10-31T01:46:41.866Z,33.13
2022-10-31T01:49:19.980Z,32.47
2022-10-31T01:51:52.997Z,32.60
2022-10-31T01:54:24.474Z,30.60
2022-10-31T01:56:56.642Z,30.90
2022-10-31T01:59:27.354Z,29.60
2022-10-31T02:01:55.148Z,30.50
2022-10-31T02:04:26.006Z,28.33
2022-10-31T02:07:02.216Z,27.93
2022-10-31T02:09:32.801Z,28.90
2022-10-31T02:12:03.398Z,26.50
2022-10-31T02:14:32.230Z,28.57
2022-10-31T02:16:59.339Z,26.90
2022-10-31T02:19:38.263Z,26.37
2022-10-31T02:22:18.025Z,25.70
2022-10-31T02:24:56.144Z,23.03
2022-10-31T02:28:07.419Z,23.23
2022-10-31T02:30:54.899Z,24.47
2022-10-31T02:33:29.548Z,22.90
2022-10-31T02:36:17.544Z,25.03
2022-10-31T02:38:56.524Z,23.57
2022-10-31T02:41:43.841Z,24.40
2022-10-31T02:44:38.376Z,25.77
2022-10-31T02:47:27.022Z,26.33
2022-10-31T02:49:57.819Z,25.80
2022-10-31T02:52:27.683Z,28.80
2022-10-31T02:55:25.306Z,30.63
2022-10-31T02:58:14.987Z,26.17
2022-10-31T03:00:54.415Z,27.17
2022-10-31T03:03:28.770Z,25.80
2022-10-31T03:06:10.065Z,34.10
2022-10-31T03:08:50.034Z,27.37
2022-10-31T03:11:20.515Z,27.53
2022-10-31T03:13:58.676Z,29.33
2022-10-31T03:16:38.794Z,29.90
2022-10-31T03:19:18.597Z,29.37
2022-10-31T03:22:15.929Z,28.13
2022-10-31T03:24:46.034Z,27.30
2022-10-31T03:27:20.009Z,27.60
2022-10-31T03:29:50.725Z,28.47
2022-10-31T03:32:22.470Z,30.93
2022-10-31T03:34:54.693Z,27.93
2022-10-31T03:37:24.649Z,29.23
2022-10-31T03:39:53.230Z,28.67
2022-10-31T03:42:25.955Z,29.83
2022-10-31T03:45:05.714Z,29.87
2022-10-31T03:47:33.947Z,32.40
2022-10-31T03:50:01.482Z,30.07
2022-10-31T03:52:29.322Z,31.37
2022-10-31T03:55:19.216Z,29.60
2022-10-31T03:58:05.299Z,30.37
2022-10-31T04:00:34.972Z,33.33
2022-10-31T04:03:10.205Z,31.73
2022-10-31T04:05:40.649Z,34.77
2022-10-31T04:08:14.228Z,41.60
2022-10-31T04:10:44.249Z,41.93
2022-10-31T04:13:17.005Z,42.53
2022-10-31T04:15:48.671Z,41.93
2022-10-31T04:18:17.384Z,46.80
2022-10-31T04:20:44.990Z,49.10
2022-10-31T04:23:25.587Z,50.93
2022-10-31T04:25:53.856Z,48.20
2022-10-31T04:28:20.832Z,51.10
2022-10-31T04:30:48.198Z,53.50
2022-10-31T04:33:15.271Z,53.03
2022-10-31T04:35:44.156Z,50.63
2022-10-31T04:38:11.537Z,52.73
2022-10-31T04:40:40.051Z,51.87
2022-10-31T04:43:29.732Z,52.03
2022-10-31T04:45:56.891Z,55.90
2022-10-31T04:48:23.798Z,55.93
2022-10-31T04:50:50.990Z,53.80
2022-10-31T04:53:17.875Z,55.10
2022-10-31T04:56:05.907Z,49.23
2022-10-31T04:58:39.413Z,55.60
2022-10-31T05:01:08.784Z,54.00
2022-10-31T05:03:35.789Z,61.60
2022-10-31T05:06:03.179Z,59.03
2022-10-31T05:08:30.200Z,61.00
2022-10-31T05:11:04.477Z,60.83
2022-10-31T05:13:32.588Z,54.20
2022-10-31T05:16:19.910Z,63.17
2022-10-31T05:19:06.840Z,62.77
2022-10-31T05:21:52.584Z,57.93
2022-10-31T05:24:22.732Z,56.60
2022-10-31T05:26:50.611Z,48.80
2022-10-31T05:29:18.282Z,60.60
2022-10-31T05:31:45.632Z,49.83
2022-10-31T05:34:30.322Z,53.27
2022-10-31T05:37:16.093Z,49.87
2022-10-31T05:39:43.085Z,47.73
2022-10-31T05:42:15.313Z,55.07
2022-10-31T05:44:42.424Z,49.60
2022-10-31T05:47:23.450Z,48.60
2022-10-31T05:49:56.716Z,47.93
2022-10-31T05:52:44.129Z,50.13
2022-10-31T05:55:20.345Z,48.07
2022-10-31T05:58:05.133Z,52.93
2022-10-31T06:00:36.038Z,51.33
2022-10-31T06:05:50.534Z,46.00
2022-10-31T06:08:19.797Z,48.73
2022-10-31T06:10:46.923Z,48.97
2022-10-31T06:13:16.881Z,49.67
2022-10-31T06:15:46.525Z,50.37
2022-10-31T06:18:13.709Z,49.10
2022-10-31T06:20:49.230Z,47.40
2022-10-31T06:23:17.148Z,50.13
2022-10-31T06:25:50.274Z,49.87
2022-10-31T06:28:17.839Z,47.13
2022-10-31T06:30:51.083Z,56.17
2022-10-31T06:33:18.884Z,50.73
2022-10-31T06:35:56.069Z,53.47
2022-10-31T06:38:23.839Z,49.93
2022-10-31T06:40:50.999Z,57.03
2022-10-31T06:43:27.263Z,54.97
2022-10-31T06:46:20.363Z,55.47
2022-10-31T06:49:26.143Z,48.37
2022-10-31T06:52:00.985Z,54.03
2022-10-31T06:54:28.430Z,61.17
2022-10-31T06:56:55.548Z,50.90
2022-10-31T06:59:22.760Z,54.60
2022-10-31T07:02:12.752Z,53.13
2022-10-31T07:04:42.616Z,57.63
2022-10-31T07:07:13.004Z,52.80
2022-10-31T07:09:40.812Z,54.07
2022-10-31T07:12:10.281Z,51.23
2022-10-31T07:14:41.064Z,47.57
2022-10-31T07:17:08.025Z,50.50
2022-10-31T07:19:39.639Z,46.83
2022-10-31T07:22:06.620Z,47.10
2022-10-31T07:24:35.058Z,48.87
2022-10-31T07:27:17.255Z,50.27
2022-10-31T07:29:46.385Z,47.27
2022-10-31T07:32:13.490Z,53.80
2022-10-31T07:34:47.647Z,50.53
2022-10-31T07:37:28.970Z,51.37
2022-10-31T07:39:57.775Z,46.87
2022-10-31T07:42:24.641Z,53.43
2022-10-31T07:44:53.916Z,54.80
2022-10-31T07:47:49.593Z,54.13
2022-10-31T07:50:35.723Z,47.90
2022-10-31T07:53:21.441Z,46.97
2022-10-31T07:55:53.257Z,48.73
2022-10-31T07:58:20.581Z,48.07
2022-10-31T08:00:48.651Z,48.57
2022-10-31T08:03:23.869Z,45.53
2022-10-31T08:06:29.022Z,45.73
2022-10-31T08:09:14.314Z,44.73
2022-10-31T08:11:42.250Z,47.00
2022-10-31T08:14:09.208Z,44.00
2022-10-31T08:16:36.382Z,44.93
2022-10-31T08:19:05.925Z,44.80
2022-10-31T08:21:38.344Z,42.87
2022-10-31T08:24:07.095Z,45.20
2022-10-31T08:26:34.419Z,43.23
2022-10-31T08:29:01.694Z,43.00
2022-10-31T08:31:34.420Z,44.77
2022-10-31T08:34:22.098Z,43.47
2022-10-31T08:36:52.703Z,46.67
2022-10-31T08:39:33.501Z,43.37
2022-10-31T08:42:00.657Z,43.40
2022-10-31T08:44:28.707Z,47.37
2022-10-31T08:46:55.867Z,43.60
2022-10-31T08:49:23.741Z,42.30
2022-10-31T08:51:51.525Z,42.43
2022-10-31T08:54:21.907Z,44.30
2022-10-31T08:57:11.785Z,42.20
2022-10-31T08:59:45.867Z,44.00
2022-10-31T09:02:22.614Z,42.27
2022-10-31T09:04:53.013Z,41.10
2022-10-31T09:07:21.292Z,42.73
2022-10-31T09:09:48.964Z,42.07
2022-10-31T09:12:17.741Z,41.57
2022-10-31T09:15:03.625Z,42.07
2022-10-31T09:17:49.450Z,34.07
2022-10-31T09:20:24.445Z,38.20
2022-10-31T09:23:00.855Z,37.70
2022-10-31T09:25:30.123Z,36.83
2022-10-31T09:28:34.424Z,37.27
2022-10-31T09:31:06.714Z,35.77
2022-10-31T09:33:56.891Z,36.20
2022-10-31T09:36:47.022Z,37.43
2022-10-31T09:39:19.145Z,36.47
2022-10-31T09:42:14.061Z,38.30
2022-10-31T09:44:56.976Z,36.97
2022-10-31T09:47:54.908Z,35.07
2022-10-31T09:50:55.666Z,35.00
2022-10-31T09:54:05.899Z,33.70
2022-10-31T09:56:34.154Z,33.33
2022-10-31T09:59:03.913Z,35.10
2022-10-31T10:01:44.675Z,34.37
2022-10-31T10:04:42.235Z,34.07
2022-10-31T10:07:23.901Z,35.10
2022-10-31T10:10:15.229Z,36.53
2022-10-31T10:13:09.978Z,36.83
2022-10-31T10:15:49.101Z,35.67
2022-10-31T10:18:53.909Z,36.37
2022-10-31T10:21:33.885Z,36.00
2022-10-31T10:24:27.311Z,33.57
2022-10-31T10:27:11.214Z,34.37
2022-10-31T10:29:56.761Z,33.90
2022-10-31T10:32:27.384Z,36.00
2022-10-31T10:35:22.942Z,37.90
2022-10-31T10:37:54.237Z,36.47
2022-10-31T10:40:25.228Z,35.90
2022-10-31T10:43:20.930Z,35.53
2022-10-31T10:46:21.892Z,35.00
2022-10-31T10:48:52.785Z,36.97
2022-10-31T10:52:07.087Z,37.97
2022-10-31T10:54:47.074Z,38.43
2022-10-31T10:57:18.814Z,39.10
2022-10-31T10:59:47.211Z,37.67
2022-10-31T11:02:23.928Z,36.47
2022-10-31T11:04:56.646Z,36.43
2022-10-31T11:07:23.852Z,41.33
2022-10-31T11:09:51.075Z,42.50
2022-10-31T11:12:31.723Z,40.17
2022-10-31T11:15:04.989Z,39.37
2022-10-31T11:17:39.777Z,41.60
2022-10-31T11:20:06.656Z,42.07
2022-10-31T11:22:33.812Z,43.90
2022-10-31T11:25:00.776Z,40.93
2022-10-31T11:27:28.350Z,43.10
2022-10-31T11:30:06.221Z,39.73
2022-10-31T11:32:33.622Z,38.90
2022-10-31T11:35:03.933Z,39.93
2022-10-31T11:37:37.961Z,42.63
2022-10-31T11:40:07.355Z,41.63
2022-10-31T11:42:41.266Z,41.90
2022-10-31T11:45:17.305Z,39.87
2022-10-31T11:47:48.774Z,37.43
2022-10-31T11:50:43.518Z,40.87
2022-10-31T11:53:29.285Z,40.43
2022-10-31T11:56:15.189Z,43.43
2022-10-31T11:58:43.542Z,42.37
2022-10-31T12:01:28.215Z,41.43
2022-10-31T12:03:58.426Z,41.23
2022-10-31T12:06:37.136Z,40.80
2022-10-31T12:09:20.105Z,40.47
2022-10-31T12:12:05.370Z,42.10
2022-10-31T12:15:11.020Z,42.37
2022-10-31T12:18:08.275Z,44.93
2022-10-31T12:21:03.188Z,46.37
2022-10-31T12:23:45.401Z,45.43
2022-10-31T12:26:33.846Z,46.83
2022-10-31T12:29:15.885Z,52.03
2022-10-31T12:32:11.475Z,48.37
2022-10-31T12:35:15.473Z,50.70
2022-10-31T12:37:57.844Z,50.23
2022-10-31T12:40:38.210Z,52.53
2022-10-31T12:43:15.849Z,57.90
2022-10-31T12:45:48.635Z,51.90
2022-10-31T12:48:57.101Z,52.17
2022-10-31T12:52:22.282Z,48.63
2022-10-31T12:55:07.472Z,48.60
2022-10-31T12:57:40.726Z,49.30
2022-10-31T13:00:17.131Z,47.37
2022-10-31T13:02:44.109Z,48.80
2022-10-31T13:05:38.578Z,45.30
2022-10-31T13:08:25.856Z,44.57
2022-10-31T13:13:36.665Z,48.63
2022-10-31T13:16:27.695Z,46.13
2022-10-31T13:19:02.866Z,46.83
2022-10-31T13:21:41.173Z,44.53
2022-10-31T13:24:17.457Z,47.77
2022-10-31T13:27:10.496Z,46.33
2022-10-31T13:29:44.345Z,44.53
2022-10-31T13:32:11.790Z,45.97
2022-10-31T13:34:44.188Z,47.40
2022-10-31T13:37:39.250Z,45.73
2022-10-31T13:40:19.058Z,45.00
2022-10-31T13:42:52.252Z,47.80
2022-10-31T13:45:22.558Z,45.07
2022-10-31T13:48:16.852Z,44.53
2022-10-31T13:50:55.765Z,44.53
2022-10-31T13:53:36.082Z,43.70
2022-10-31T13:56:14.395Z,41.03
2022-10-31T13:58:58.550Z,40.60
2022-10-31T14:01:25.860Z,41.90
2022-10-31T14:04:18.061Z,42.17
2022-10-31T14:07:09.037Z,39.83
2022-10-31T14:09:40.105Z,40.73
2022-10-31T14:12:13.810Z,41.80
2022-10-31T14:14:51.457Z,42.43
2022-10-31T14:17:25.040Z,40.17
2022-10-31T14:20:11.224Z,42.30
2022-10-31T14:22:42.884Z,43.10
2022-10-31T14:25:26.285Z,40.00
2022-10-31T14:27:53.609Z,46.23
2022-10-31T14:30:25.928Z,44.67
2022-10-31T14:32:56.433Z,43.90
2022-10-31T14:35:38.832Z,46.92
2022-10-31T14:38:33.834Z,47.17
2022-10-31T14:41:22.520Z,47.73
2022-10-31T14:44:04.315Z,48.33
2022-10-31T14:46:51.703Z,51.63
2022-10-31T14:49:37.146Z,45.60
2022-10-31T14:52:08.530Z,48.23
2022-10-31T14:54:46.020Z,46.97
2022-10-31T14:57:26.888Z,46.10
2022-10-31T15:00:03.643Z,46.53
2022-10-31T15:02:44.913Z,49.80
2022-10-31T15:05:14.089Z,47.97
2022-10-31T15:07:58.716Z,47.90
2022-10-31T15:10:26.330Z,51.30
2022-10-31T15:12:53.812Z,50.17
2022-10-31T15:15:25.927Z,52.47
2022-10-31T15:18:00.674Z,55.17
2022-10-31T15:20:31.461Z,52.97
2022-10-31T15:23:00.292Z,53.07
2022-10-31T15:25:33.310Z,56.47
2022-10-31T15:28:00.956Z,52.27
2022-10-31T15:30:30.208Z,56.80
2022-10-31T15:32:59.388Z,53.97
2022-10-31T15:35:28.155Z,50.43
2022-10-31T15:37:56.405Z,47.93
2022-10-31T15:40:25.824Z,50.67
2022-10-31T15:42:54.701Z,50.97
2022-10-31T15:45:26.423Z,52.33
2022-10-31T15:48:02.533Z,48.90
2022-10-31T15:50:38.166Z,48.53
2022-10-31T15:53:07.500Z,48.67
2022-10-31T15:55:45.905Z,48.07
2022-10-31T15:58:15.865Z,49.20
2022-10-31T16:00:42.892Z,45.90
2022-10-31T16:03:15.858Z,45.53
2022-10-31T16:05:52.102Z,47.17
2022-10-31T16:08:31.521Z,41.50
2022-10-31T16:11:28.732Z,39.90
2022-10-31T16:13:58.551Z,37.93
2022-10-31T16:16:35.265Z,36.90
2022-10-31T16:19:05.838Z,39.30
2022-10-31T16:21:39.503Z,45.37
2022-10-31T16:24:18.094Z,40.20
2022-10-31T16:26:50.331Z,41.40
2022-10-31T16:29:29.393Z,42.43
2022-10-31T16:31:56.529Z,39.80
2022-10-31T16:34:26.875Z,35.57
2022-10-31T16:36:54.282Z,38.80
2022-10-31T16:39:21.722Z,35.93
2022-10-31T16:41:53.331Z,35.87
2022-10-31T16:44:24.274Z,36.73
2022-10-31T16:47:16.128Z,34.97
2022-10-31T16:49:47.361Z,33.53
2022-10-31T16:52:14.291Z,36.30
2022-10-31T16:54:41.646Z,35.97
2022-10-31T16:57:15.829Z,34.07
2022-10-31T16:59:43.599Z,32.47
2022-10-31T17:02:16.239Z,34.03
2022-10-31T17:04:43.934Z,34.63
2022-10-31T17:07:10.952Z,33.30
2022-10-31T17:09:38.112Z,30.47
2022-10-31T17:12:07.942Z,30.60
2022-10-31T17:14:35.380Z,31.47
2022-10-31T17:17:02.268Z,29.23
2022-10-31T17:19:29.491Z,29.03
2022-10-31T17:21:56.535Z,31.50
2022-10-31T17:24:23.617Z,32.20
2022-10-31T17:26:50.525Z,36.77
2022-10-31T17:29:18.445Z,39.23
2022-10-31T17:31:45.305Z,34.33
2022-10-31T17:34:12.356Z,33.47
2022-10-31T17:36:39.288Z,30.03
2022-10-31T17:39:07.644Z,32.10
2022-10-31T17:41:34.595Z,30.53
2022-10-31T17:44:02.209Z,27.97
2022-10-31T17:46:29.053Z,27.47
2022-10-31T17:48:56.184Z,27.10
2022-10-31T17:51:23.235Z,24.90
2022-10-31T17:53:50.435Z,26.67
2022-10-31T17:56:17.380Z,26.17
2022-10-31T17:58:44.431Z,27.40
2022-10-31T18:01:14.014Z,27.33
2022-10-31T18:03:41.670Z,26.70
2022-10-31T18:06:10.492Z,29.80
2022-10-31T18:08:39.978Z,28.67
2022-10-31T18:11:17.032Z,32.27
2022-10-31T18:13:44.254Z,30.00
2022-10-31T18:16:14.258Z,26.90
2022-10-31T18:18:41.592Z,26.63
2022-10-31T18:21:08.914Z,27.17
2022-10-31T18:23:36.109Z,29.67
2022-10-31T18:26:03.200Z,27.70
2022-10-31T18:28:30.389Z,28.90
2022-10-31T18:31:00.770Z,28.33
2022-10-31T18:33:27.982Z,28.93
2022-10-31T18:35:55.088Z,30.03
2022-10-31T18:38:23.082Z,28.30
2022-10-31T18:40:51.710Z,29.70
2022-10-31T18:43:18.787Z,30.03
2022-10-31T18:45:48.117Z,29.40
2022-10-31T18:48:17.520Z,27.10
2022-10-31T18:50:44.546Z,28.73
2022-10-31T18:53:11.678Z,28.73
2022-10-31T18:55:44.010Z,28.53
2022-10-31T18:58:14.611Z,29.50
2022-10-31T19:00:41.587Z,29.30
2022-10-31T19:03:08.689Z,30.43
2022-10-31T19:05:35.647Z,27.90
2022-10-31T19:08:02.808Z,28.13
2022-10-31T19:10:30.103Z,26.77
2022-10-31T19:12:57.206Z,26.97
2022-10-31T19:15:24.089Z,25.30
2022-10-31T19:17:51.241Z,27.07
2022-10-31T19:20:18.312Z,27.17
2022-10-31T19:22:45.353Z,28.33
2022-10-31T19:25:12.396Z,28.83
2022-10-31T19:27:39.630Z,29.13
2022-10-31T19:30:07.637Z,28.67
2022-10-31T19:32:34.820Z,27.10
2022-10-31T19:35:01.713Z,25.27
2022-10-31T19:37:28.965Z,31.30
2022-10-31T19:39:55.855Z,33.83
2022-10-31T19:42:24.327Z,35.07
2022-10-31T19:44:51.220Z,34.17
2022-10-31T19:47:18.284Z,36.00
2022-10-31T19:49:45.208Z,36.17
2022-10-31T19:52:12.525Z,36.17
2022-10-31T19:54:39.404Z,38.80
2022-10-31T19:57:06.575Z,42.37
2022-10-31T19:59:38.272Z,35.93
2022-10-31T20:02:06.674Z,39.33
2022-10-31T20:04:33.618Z,38.33
2022-10-31T20:07:00.752Z,44.47
2022-10-31T20:09:27.629Z,46.73
2022-10-31T20:11:54.736Z,47.87
2022-10-31T20:14:21.714Z,39.73
2022-10-31T20:16:48.819Z,40.13
2022-10-31T20:19:15.733Z,41.57
2022-10-31T20:21:42.968Z,42.50
2022-10-31T20:24:10.959Z,43.40
2022-10-31T20:26:40.842Z,39.23
2022-10-31T20:29:08.105Z,39.37
2022-10-31T20:31:36.599Z,36.10
2022-10-31T20:34:04.009Z,38.23
2022-10-31T20:36:31.245Z,37.60
2022-10-31T20:38:58.804Z,37.07
2022-10-31T20:41:26.624Z,33.27
2022-10-31T20:43:53.606Z,34.47
2022-10-31T20:46:23.491Z,32.40
2022-10-31T20:48:50.974Z,31.37
2022-10-31T20:51:21.592Z,29.00
2022-10-31T20:53:52.698Z,28.83
2022-10-31T20:56:22.953Z,29.93
2022-10-31T20:58:50.701Z,26.83
2022-10-31T21:01:18.978Z,29.27
2022-10-31T21:03:46.160Z,29.80
2022-10-31T21:06:14.755Z,30.73
2022-10-31T21:08:43.273Z,31.13
2022-10-31T21:11:12.915Z,30.73
2022-10-31T21:13:41.961Z,29.70
2022-10-31T21:16:17.772Z,29.93
2022-10-31T21:18:46.206Z,28.80
2022-10-31T21:21:16.477Z,28.43
2022-10-31T21:23:44.206Z,28.73
2022-10-31T21:26:17.418Z,29.60
2022-10-31T21:28:44.922Z,28.47
2022-10-31T21:31:14.975Z,28.43
2022-10-31T21:33:43.020Z,27.53
2022-10-31T21:36:11.350Z,28.30
2022-10-31T21:38:38.790Z,28.83
2022-10-31T21:41:11.506Z,29.93
2022-10-31T21:43:40.584Z,29.10
2022-10-31T21:46:12.783Z,28.83
2022-10-31T21:48:42.239Z,28.67
2022-10-31T21:51:11.793Z,30.70
2022-10-31T21:53:57.842Z,31.33
2022-10-31T21:56:25.360Z,30.37
2022-10-31T21:58:53.288Z,30.47
2022-10-31T22:01:21.903Z,30.53
2022-10-31T22:03:49.411Z,31.47
2022-10-31T22:06:16.637Z,29.90
2022-10-31T22:08:43.757Z,28.90
2022-10-31T22:11:14.301Z,29.53
2022-10-31T22:13:43.630Z,29.10
2022-10-31T22:16:13.373Z,28.40
2022-10-31T22:18:41.154Z,28.63
2022-10-31T22:21:16.595Z,28.73
2022-10-31T22:23:44.537Z,30.40
2022-10-31T22:26:14.316Z,28.80
2022-10-31T22:28:42.919Z,28.77
2022-10-31T22:31:16.354Z,30.63
2022-10-31T22:33:44.580Z,31.27
2022-10-31T22:36:15.529Z,31.43
2022-10-31T22:38:43.679Z,29.83
2022-10-31T22:41:15.572Z,30.00
2022-10-31T22:43:42.799Z,30.77
2022-10-31T22:46:16.799Z,29.47
2022-10-31T22:48:47.441Z,29.07
2022-10-31T22:51:17.539Z,31.77
2022-10-31T22:53:45.119Z,34.07
2022-10-31T22:56:15.505Z,33.13
2022-10-31T22:58:43.040Z,34.33
2022-10-31T23:01:19.011Z,32.17
2022-10-31T23:03:47.899Z,33.80
2022-10-31T23:06:26.760Z,34.57
2022-10-31T23:08:59.027Z,33.47
2022-10-31T23:11:34.091Z,34.07
2022-10-31T23:14:13.748Z,36.70
2022-10-31T23:16:55.587Z,34.47
2022-10-31T23:19:27.507Z,32.73
2022-10-31T23:22:00.950Z,33.43
2022-10-31T23:24:39.813Z,32.43
2022-10-31T23:27:11.893Z,37.20
2022-10-31T23:29:51.050Z,34.37
2022-10-31T23:32:18.375Z,33.10
2022-10-31T23:34:46.358Z,35.80
2022-10-31T23:37:14.567Z,34.57
2022-10-31T23:39:41.636Z,34.00
2022-10-31T23:42:09.250Z,33.27
2022-10-31T23:44:36.160Z,34.37
2022-10-31T23:47:03.799Z,35.80
2022-10-31T23:49:30.674Z,33.47
2022-10-31T23:51:58.085Z,31.83
2022-10-31T23:54:26.413Z,32.93
2022-10-31T23:56:54.482Z,33.70
2022-10-31T23:59:22.903Z,32.10
